Time;durP1;ratioP1;P1;durP2;ratioP2;P2;SDS_P1;SDS_P2;PMS_P1;PMS_P2;Temp;Humidity;BMP_temperature;BMP_pressure;BME280_temperature;BME280_humidity;BME280_pressure;Samples;Min_cycle;Max_cycle;Signal;HPM_P1;HPM_P2
2022/04/07 00:00:52;;;;;;;9.02;3.92;;;9.30;99.90;;;;;;5051939;28;20041;-72
2022/04/07 00:03:18;;;;;;;7.68;4.00;;;9.40;99.90;;;;;;5051957;28;20120;-72
2022/04/07 00:05:44;;;;;;;8.30;3.78;;;9.40;99.90;;;;;;5035265;28;20048;-72
2022/04/07 00:08:10;;;;;;;9.70;3.97;;;9.60;99.90;;;;;;5051829;28;20055;-72
2022/04/07 00:10:36;;;;;;;7.93;4.38;;;9.40;99.90;;;;;;5052046;28;20086;-71
2022/04/07 00:13:03;;;;;;;7.32;3.53;;;9.80;99.90;;;;;;5002465;28;20435;-72
2022/04/07 00:15:29;;;;;;;7.95;4.18;;;9.40;99.90;;;;;;5034957;28;20063;-71
2022/04/07 00:17:56;;;;;;;8.73;3.97;;;9.40;99.90;;;;;;5051946;28;20080;-71
2022/04/07 00:20:21;;;;;;;6.05;3.58;;;9.20;99.90;;;;;;5018712;28;20067;-72
2022/04/07 00:22:48;;;;;;;3.42;2.40;;;9.20;99.90;;;;;;5051839;28;20037;-72
2022/04/07 00:25:14;;;;;;;9.93;3.83;;;9.10;99.90;;;;;;5051492;28;20044;-71
2022/04/07 00:27:40;;;;;;;7.93;3.70;;;9.10;99.90;;;;;;5051387;28;20119;-72
2022/04/07 00:30:06;;;;;;;13.70;3.72;;;9.00;99.90;;;;;;5035931;28;20033;-73
2022/04/07 00:32:39;;;;;;;8.85;4.07;;;8.90;99.90;;;;;;5054999;28;20041;-73
2022/04/07 00:35:05;;;;;;;10.00;4.38;;;8.90;99.90;;;;;;5054821;28;20115;-73
2022/04/07 00:37:30;;;;;;;6.18;4.00;;;8.80;99.90;;;;;;5054451;28;20090;-73
2022/04/07 00:39:56;;;;;;;13.63;5.32;;;8.80;99.90;;;;;;5037979;28;20063;-73
2022/04/07 00:42:22;;;;;;;12.15;4.82;;;8.70;99.90;;;;;;5054544;28;20388;-73
2022/04/07 00:44:47;;;;;;;7.97;4.85;;;8.70;99.90;;;;;;5054495;28;20036;-73
2022/04/07 00:47:13;;;;;;;11.77;5.28;;;8.70;99.90;;;;;;5054419;28;20514;-74
2022/04/07 00:49:39;;;;;;;11.32;5.40;;;8.70;99.90;;;;;;5054501;28;20145;-73
2022/04/07 00:52:07;;;;;;;10.13;4.70;;;8.70;99.90;;;;;;5054388;28;20487;-73
2022/04/07 00:54:34;;;;;;;12.15;4.40;;;8.70;99.90;;;;;;5038013;28;20041;-73
2022/04/07 00:57:00;;;;;;;9.60;4.03;;;8.70;99.90;;;;;;5054199;28;20056;-73
2022/04/07 00:59:28;;;;;;;7.05;3.30;;;8.70;99.90;;;;;;5053374;28;20403;-72
2022/04/07 01:01:54;;;;;;;5.93;2.38;;;8.90;99.90;;;;;;5054174;28;20052;-72
2022/04/07 01:04:22;;;;;;;4.32;1.23;;;8.60;99.90;;;;;;5054129;28;20040;-72
2022/04/07 01:06:48;;;;;;;3.25;1.20;;;8.60;99.90;;;;;;5054093;28;20465;-72
2022/04/07 01:09:15;;;;;;;4.05;1.33;;;8.60;99.90;;;;;;5054120;28;20029;-72
2022/04/07 01:11:42;;;;;;;3.47;1.10;;;8.50;99.90;;;;;;5054241;28;20044;-72
2022/04/07 01:14:08;;;;;;;4.85;1.60;;;8.60;99.90;;;;;;5054095;28;20037;-72
2022/04/07 01:16:34;;;;;;;3.28;1.60;;;8.40;99.90;;;;;;5054084;28;20102;-72
2022/04/07 01:19:00;;;;;;;3.70;2.15;;;8.40;99.90;;;;;;5054154;28;20041;-72
2022/04/07 01:21:32;;;;;;;5.82;2.50;;;8.40;99.90;;;;;;5054317;28;20040;-73
2022/04/07 01:24:05;;;;;;;4.28;2.70;;;8.40;99.90;;;;;;5053925;28;20071;-73
2022/04/07 01:26:45;;;;;;;6.68;2.88;;;8.40;99.90;;;;;;5037656;28;20558;-73
2022/04/07 01:29:25;;;;;;;6.78;3.22;;;8.40;99.90;;;;;;5054231;28;20054;-73
2022/04/07 01:31:51;;;;;;;7.32;3.05;;;8.50;99.90;;;;;;5053735;28;20462;-73
2022/04/07 01:34:18;;;;;;;4.05;2.40;;;8.50;99.90;;;;;;5037470;28;20044;-74
2022/04/07 01:36:46;;;;;;;4.95;2.70;;;8.50;99.90;;;;;;5053666;28;20050;-73
2022/04/07 01:39:13;;;;;;;6.10;3.10;;;8.50;99.90;;;;;;5037134;28;20102;-73
2022/04/07 01:41:41;;;;;;;6.13;3.60;;;8.40;99.90;;;;;;5037330;28;20041;-74
2022/04/07 01:44:09;;;;;;;7.55;4.30;;;8.60;99.90;;;;;;5053735;28;20028;-73
2022/04/07 01:46:35;;;;;;;6.90;4.18;;;8.40;99.90;;;;;;5036905;28;20118;-72
2022/04/07 01:49:02;;;;;;;7.95;4.22;;;8.50;99.90;;;;;;5037114;28;20048;-72
2022/04/07 01:51:29;;;;;;;9.65;5.25;;;8.60;99.90;;;;;;5036984;28;20106;-72
2022/04/07 01:53:56;;;;;;;17.45;7.55;;;8.70;99.90;;;;;;5036989;28;20044;-72
2022/04/07 01:56:23;;;;;;;14.15;5.78;;;8.60;99.90;;;;;;5053461;28;20052;-72
2022/04/07 01:58:48;;;;;;;14.38;6.85;;;8.90;99.90;;;;;;5053470;28;20040;-72
2022/04/07 02:01:15;;;;;;;12.55;6.70;;;8.60;99.90;;;;;;5037256;28;20051;-72
2022/04/07 02:03:40;;;;;;;12.43;6.05;;;8.70;99.90;;;;;;5070165;28;20037;-72
2022/04/07 02:06:14;;;;;;;11.40;6.20;;;8.70;99.90;;;;;;5036858;28;20534;-72
2022/04/07 02:08:40;;;;;;;10.30;5.57;;;8.80;99.90;;;;;;5070190;28;20040;-72
2022/04/07 02:11:07;;;;;;;10.43;3.53;;;8.70;99.90;;;;;;5040204;28;20094;-73
2022/04/07 02:13:33;;;;;;;10.73;5.05;;;8.80;99.90;;;;;;5040767;28;20087;-72
2022/04/07 02:16:01;;;;;;;9.32;4.10;;;8.80;99.90;;;;;;5057289;28;20323;-72
2022/04/07 02:18:26;;;;;;;12.60;5.28;;;8.70;99.90;;;;;;5040686;28;20032;-72
2022/04/07 02:20:52;;;;;;;9.60;3.95;;;8.70;99.90;;;;;;5057432;28;20040;-73
2022/04/07 02:23:18;;;;;;;11.13;3.85;;;8.70;99.90;;;;;;5040462;28;20040;-73
2022/04/07 02:25:43;;;;;;;9.48;2.67;;;8.70;99.90;;;;;;5040546;28;20109;-72
2022/04/07 02:28:09;;;;;;;7.43;3.53;;;8.70;99.90;;;;;;5040708;28;20082;-72
2022/04/07 02:30:35;;;;;;;6.78;2.90;;;8.70;99.90;;;;;;5039971;28;20147;-72
2022/04/07 02:33:01;;;;;;;10.27;3.47;;;8.70;99.90;;;;;;5056816;28;20056;-72
2022/04/07 02:35:26;;;;;;;9.82;4.15;;;8.70;99.90;;;;;;5056882;28;20048;-72
2022/04/07 02:37:52;;;;;;;14.45;3.10;;;8.70;99.90;;;;;;5023719;28;20506;-72
2022/04/07 02:40:18;;;;;;;12.30;4.68;;;8.70;99.90;;;;;;5056884;28;20041;-72
2022/04/07 02:42:43;;;;;;;10.25;3.47;;;8.70;99.90;;;;;;5057203;28;20123;-72
2022/04/07 02:45:09;;;;;;;6.63;3.58;;;8.70;99.90;;;;;;5056754;28;20047;-72
2022/04/07 02:47:39;;;;;;;7.38;3.47;;;8.70;99.90;;;;;;5056635;28;20131;-72
2022/04/07 02:50:06;;;;;;;10.53;3.73;;;8.70;99.90;;;;;;5056867;28;20067;-71
2022/04/07 02:52:32;;;;;;;8.90;3.60;;;8.70;99.90;;;;;;5056893;28;20063;-72
2022/04/07 02:54:58;;;;;;;9.85;4.00;;;8.80;99.90;;;;;;5040169;28;20047;-72
2022/04/07 02:57:25;;;;;;;14.07;3.85;;;8.80;99.90;;;;;;5039948;28;20434;-72
2022/04/07 02:59:51;;;;;;;8.70;3.42;;;8.80;99.90;;;;;;5056490;28;20487;-72
2022/04/07 03:02:17;;;;;;;11.45;3.47;;;8.80;99.90;;;;;;5056514;28;20093;-72
2022/04/07 03:04:43;;;;;;;14.43;4.97;;;8.80;99.90;;;;;;5056480;28;20044;-72
2022/04/07 03:07:08;;;;;;;11.48;4.30;;;8.90;99.90;;;;;;5056191;28;20045;-72
2022/04/07 03:09:34;;;;;;;8.30;3.40;;;9.10;99.90;;;;;;5056202;28;20075;-72
2022/04/07 03:12:00;;;;;;;7.22;3.50;;;8.80;99.90;;;;;;5056187;28;20044;-72
2022/04/07 03:14:27;;;;;;;9.93;3.75;;;8.70;99.90;;;;;;5039523;28;20380;-71
2022/04/07 03:16:53;;;;;;;9.95;4.03;;;8.70;99.90;;;;;;5055898;28;20040;-71
2022/04/07 03:19:19;;;;;;;10.27;3.45;;;8.80;99.90;;;;;;5056217;28;20407;-71
2022/04/07 03:21:45;;;;;;;9.48;2.85;;;8.70;99.90;;;;;;5055133;28;20040;-71
2022/04/07 03:24:12;;;;;;;11.52;4.63;;;8.70;99.90;;;;;;5039470;28;20040;-71
2022/04/07 03:26:41;;;;;;;8.18;3.67;;;8.70;99.90;;;;;;5056288;28;20523;-71
2022/04/07 03:29:07;;;;;;;12.35;4.20;;;8.70;99.90;;;;;;5072677;28;20036;-72
2022/04/07 03:31:33;;;;;;;10.57;3.50;;;8.70;99.90;;;;;;5052632;28;20052;-72
2022/04/07 03:33:59;;;;;;;12.40;4.30;;;8.70;99.90;;;;;;5052591;28;20041;-73
2022/04/07 03:36:24;;;;;;;10.60;3.60;;;8.60;99.90;;;;;;5035893;28;20094;-72
2022/04/07 03:38:51;;;;;;;11.65;3.42;;;8.60;99.90;;;;;;5035762;28;20044;-72
2022/04/07 03:41:17;;;;;;;6.72;1.95;;;9.20;99.90;;;;;;5052758;28;20048;-72
2022/04/07 03:43:43;;;;;;;8.68;2.88;;;8.50;99.90;;;;;;5052281;28;20100;-72
2022/04/07 03:46:10;;;;;;;8.50;1.98;;;8.50;99.90;;;;;;5052602;28;20049;-72
2022/04/07 03:48:36;;;;;;;10.45;2.30;;;8.50;99.90;;;;;;5052224;28;20041;-72
2022/04/07 03:51:02;;;;;;;7.53;1.88;;;8.60;99.90;;;;;;5035912;28;20135;-72
2022/04/07 03:53:27;;;;;;;11.13;2.25;;;8.60;99.90;;;;;;5035637;28;20120;-72
2022/04/07 03:55:53;;;;;;;7.45;3.28;;;8.60;99.90;;;;;;5052278;28;20484;-71
2022/04/07 03:58:19;;;;;;;5.82;2.05;;;8.60;99.90;;;;;;5035894;28;20070;-71
2022/04/07 04:00:44;;;;;;;6.10;2.13;;;8.80;99.90;;;;;;5035466;28;20037;-72
2022/04/07 04:03:10;;;;;;;4.63;1.67;;;8.60;99.90;;;;;;5035687;28;20396;-72
2022/04/07 04:05:36;;;;;;;18.30;5.07;;;8.50;99.90;;;;;;5035361;28;20032;-71
2022/04/07 04:08:01;;;;;;;9.30;2.67;;;9.00;99.90;;;;;;5051829;28;20094;-71
2022/04/07 04:10:27;;;;;;;11.40;2.80;;;8.60;99.90;;;;;;5051834;28;20033;-71
2022/04/07 04:12:53;;;;;;;7.72;2.60;;;8.60;99.90;;;;;;5019016;28;20497;-71
2022/04/07 04:15:18;;;;;;;10.20;3.10;;;8.60;99.90;;;;;;5035090;28;20095;-71
2022/04/07 04:17:44;;;;;;;11.68;3.40;;;8.70;99.90;;;;;;5051888;28;20044;-71
2022/04/07 04:20:10;;;;;;;19.33;3.17;;;8.60;99.90;;;;;;5051732;28;20041;-71
2022/04/07 04:22:37;;;;;;;16.73;4.00;;;8.70;99.90;;;;;;5019053;28;20418;-71
2022/04/07 04:25:03;;;;;;;8.77;2.70;;;8.70;99.90;;;;;;5051606;28;20408;-71
2022/04/07 04:27:29;;;;;;;8.48;3.47;;;8.70;99.90;;;;;;5051463;28;20045;-71
2022/04/07 04:29:55;;;;;;;9.63;2.72;;;8.70;99.90;;;;;;5018706;28;20037;-71
2022/04/07 04:32:20;;;;;;;14.48;4.40;;;9.30;99.90;;;;;;5050920;28;20072;-71
2022/04/07 04:34:46;;;;;;;11.55;3.65;;;8.60;99.90;;;;;;5051372;28;20049;-71
2022/04/07 04:37:12;;;;;;;16.42;4.45;;;8.60;99.90;;;;;;5034768;28;20079;-71
2022/04/07 04:39:38;;;;;;;11.73;3.58;;;8.70;99.90;;;;;;5051356;28;20037;-71
2022/04/07 04:42:05;;;;;;;15.25;4.03;;;8.60;99.90;;;;;;5034961;28;20043;-71
2022/04/07 04:44:31;;;;;;;14.38;4.20;;;8.60;99.90;;;;;;5051274;28;20072;-72
2022/04/07 04:46:56;;;;;;;11.65;2.78;;;8.60;99.90;;;;;;5034941;28;20045;-71
2022/04/07 04:49:22;;;;;;;12.73;4.03;;;8.60;99.90;;;;;;5034917;28;20127;-72
2022/04/07 04:51:48;;;;;;;15.23;4.95;;;8.60;99.90;;;;;;5034447;28;20051;-71
2022/04/07 04:54:14;;;;;;;14.70;4.53;;;8.80;99.90;;;;;;5051053;28;20044;-71
2022/04/07 04:56:41;;;;;;;16.13;4.38;;;8.60;99.90;;;;;;5050891;28;20056;-72
2022/04/07 04:59:07;;;;;;;19.90;5.10;;;8.70;99.90;;;;;;5034299;28;20045;-72
2022/04/07 05:01:33;;;;;;;20.30;4.80;;;8.70;99.90;;;;;;5051226;28;20496;-71
2022/04/07 05:03:59;;;;;;;13.90;4.22;;;8.60;99.90;;;;;;5034659;28;20396;-70
2022/04/07 05:06:25;;;;;;;18.98;4.18;;;8.60;99.90;;;;;;5034325;28;20049;-71
2022/04/07 05:08:51;;;;;;;16.60;4.78;;;8.60;99.90;;;;;;5018096;28;20053;-71
2022/04/07 05:11:17;;;;;;;14.93;3.60;;;8.60;99.90;;;;;;5050812;28;20056;-71
2022/04/07 05:13:42;;;;;;;16.17;4.10;;;9.00;99.90;;;;;;5050780;28;20123;-72
2022/04/07 05:16:08;;;;;;;13.30;3.60;;;8.60;99.90;;;;;;5050718;28;20037;-72
2022/04/07 05:18:34;;;;;;;13.05;3.35;;;8.50;99.90;;;;;;5050636;28;20492;-72
2022/04/07 05:21:00;;;;;;;15.13;3.50;;;8.50;99.90;;;;;;5033921;28;20041;-73
2022/04/07 05:23:26;;;;;;;19.40;4.07;;;8.40;99.90;;;;;;5033958;28;20041;-73
2022/04/07 05:25:51;;;;;;;15.00;3.55;;;10.00;99.90;;;;;;5033997;28;20401;-74
2022/04/07 05:28:17;;;;;;;12.38;4.50;;;8.20;99.90;;;;;;5017504;28;20512;-73
2022/04/07 05:30:43;;;;;;;19.33;4.63;;;8.40;99.90;;;;;;5000603;28;20448;-74
2022/04/07 05:33:09;;;;;;;20.08;4.75;;;8.30;99.90;;;;;;5033971;28;20036;-74
2022/04/07 05:35:34;;;;;;;17.55;5.28;;;8.10;99.90;;;;;;5033616;28;20044;-75
2022/04/07 05:38:02;;;;;;;12.32;3.47;;;8.10;99.90;;;;;;5033757;28;20373;-75
2022/04/07 05:40:29;;;;;;;18.40;6.82;;;8.30;99.90;;;;;;5033579;28;20095;-75
2022/04/07 05:42:55;;;;;;;17.00;4.03;;;8.10;99.90;;;;;;5033810;28;20110;-76
2022/04/07 05:45:21;;;;;;;22.98;5.70;;;8.10;99.90;;;;;;5038561;28;20045;-75
2022/04/07 05:47:47;;;;;;;13.55;4.80;;;9.00;99.90;;;;;;5040256;28;20049;-75
2022/04/07 05:50:13;;;;;;;16.42;6.00;;;8.80;99.90;;;;;;5040387;28;20440;-76
2022/04/07 05:52:39;;;;;;;17.38;5.55;;;8.10;99.90;;;;;;5040507;28;20037;-75
2022/04/07 05:55:05;;;;;;;6.88;2.33;;;8.20;99.90;;;;;;5040161;28;20045;-75
2022/04/07 05:57:31;;;;;;;4.15;0.80;;;7.90;99.90;;;;;;5023919;28;20053;-77
2022/04/07 06:00:16;;;;;;;3.53;0.63;;;7.10;99.90;;;;;;5024117;28;20070;-78
2022/04/07 06:02:42;;;;;;;0.70;0.35;;;5.80;99.90;;;;;;5024153;28;20052;-76
2022/04/07 06:05:09;;;;;;;1.52;0.68;;;5.20;99.90;;;;;;5007464;28;20041;-76
2022/04/07 06:07:36;;;;;;;3.03;0.70;;;4.70;99.90;;;;;;5040253;28;20052;-77
2022/04/07 06:10:02;;;;;;;1.85;0.77;;;4.50;99.90;;;;;;5040035;28;20053;-77
2022/04/07 06:12:28;;;;;;;3.67;0.73;;;4.40;99.90;;;;;;5040316;28;20037;-77
2022/04/07 06:14:54;;;;;;;2.92;0.77;;;4.40;99.90;;;;;;5023419;28;20048;-77
2022/04/07 06:17:19;;;;;;;4.07;1.08;;;4.30;99.90;;;;;;5007067;28;20033;-79
2022/04/07 06:19:45;;;;;;;2.75;0.68;;;4.20;99.90;;;;;;5040423;28;20094;-77
2022/04/07 06:22:12;;;;;;;3.75;1.23;;;4.30;99.90;;;;;;5023966;28;20048;-77
2022/04/07 06:24:38;;;;;;;3.97;0.82;;;4.70;99.90;;;;;;5040439;28;20554;-76
2022/04/07 06:27:04;;;;;;;4.90;1.17;;;4.30;99.90;;;;;;5040113;28;20037;-77
2022/04/07 06:29:30;;;;;;;4.15;1.27;;;4.70;99.90;;;;;;5007010;28;20044;-76
2022/04/07 06:31:55;;;;;;;4.70;1.25;;;4.40;99.90;;;;;;5007015;28;20455;-77
2022/04/07 06:34:21;;;;;;;5.03;1.58;;;4.20;99.90;;;;;;5040042;28;20106;-75
2022/04/07 06:36:47;;;;;;;4.65;1.30;;;4.20;99.90;;;;;;5039697;28;20098;-76
2022/04/07 06:39:13;;;;;;;4.30;1.15;;;5.10;99.90;;;;;;5007419;28;20404;-76
2022/04/07 06:41:39;;;;;;;10.05;1.80;;;4.60;99.90;;;;;;5023319;28;20075;-75
2022/04/07 06:44:05;;;;;;;7.05;1.05;;;4.70;99.90;;;;;;5039797;28;20060;-75
2022/04/07 06:46:32;;;;;;;3.20;0.90;;;4.70;99.90;;;;;;5040218;28;20049;-75
2022/04/07 06:48:59;;;;;;;4.18;1.00;;;4.70;99.90;;;;;;5039665;28;20049;-76
2022/04/07 06:51:24;;;;;;;7.45;0.95;;;5.20;99.90;;;;;;5023303;28;20041;-77
2022/04/07 06:53:50;;;;;;;6.50;1.52;;;4.70;99.90;;;;;;5023456;28;20428;-76
2022/04/07 06:56:16;;;;;;;4.35;0.90;;;4.80;99.90;;;;;;5021306;28;20045;-75
2022/04/07 06:58:41;;;;;;;2.33;0.70;;;4.80;99.90;;;;;;5019796;28;20033;-74
2022/04/07 07:01:08;;;;;;;0.30;0.28;;;5.10;99.90;;;;;;5036309;28;20044;-75
2022/04/07 07:03:34;;;;;;;4.20;1.02;;;4.80;99.90;;;;;;5020064;28;20427;-75
2022/04/07 07:06:00;;;;;;;4.15;0.80;;;5.00;99.90;;;;;;5019725;28;20047;-76
2022/04/07 07:08:26;;;;;;;1.45;0.70;;;5.10;99.90;;;;;;5019639;28;20124;-75
2022/04/07 07:10:53;;;;;;;2.20;0.68;;;5.20;99.90;;;;;;5019715;28;20051;-76
2022/04/07 07:13:20;;;;;;;2.83;1.00;;;5.20;99.90;;;;;;5036396;28;20041;-76
2022/04/07 07:15:46;;;;;;;3.22;0.88;;;5.20;99.90;;;;;;5035970;28;20098;-76
2022/04/07 07:18:12;;;;;;;3.75;0.63;;;5.30;99.90;;;;;;5036309;28;20448;-76
2022/04/07 07:20:38;;;;;;;2.13;0.55;;;5.30;99.90;;;;;;5035743;28;20072;-76
2022/04/07 07:23:04;;;;;;;2.70;0.55;;;5.30;99.90;;;;;;5035796;28;20124;-75
2022/04/07 07:25:31;;;;;;;2.47;0.93;;;5.30;99.90;;;;;;5035778;28;20467;-75
2022/04/07 07:28:02;;;;;;;1.50;0.52;;;5.30;99.90;;;;;;5019730;28;20124;-75
2022/04/07 07:30:28;;;;;;;3.83;0.80;;;5.30;99.90;;;;;;5036425;28;20041;-75
2022/04/07 07:32:54;;;;;;;3.88;1.15;;;5.30;99.90;;;;;;5035742;28;20049;-73
2022/04/07 07:35:21;;;;;;;4.55;0.85;;;5.30;99.90;;;;;;5035993;28;20528;-75
2022/04/07 07:37:55;;;;;;;3.25;0.90;;;5.30;99.90;;;;;;5035673;28;20051;-75
2022/04/07 07:40:26;;;;;;;2.28;0.70;;;5.30;99.90;;;;;;5035942;28;20271;-75
2022/04/07 07:42:56;;;;;;;2.72;0.45;;;5.30;99.90;;;;;;5035554;28;20083;-74
2022/04/07 07:45:25;;;;;;;2.25;0.52;;;5.30;99.90;;;;;;5035940;28;20063;-74
2022/04/07 07:47:53;;;;;;;3.30;0.60;;;5.30;99.90;;;;;;5052357;28;20063;-73
2022/04/07 07:50:18;;;;;;;1.35;0.30;;;5.30;99.90;;;;;;5019188;28;20089;-74
2022/04/07 07:52:44;;;;;;;3.08;0.80;;;5.90;99.90;;;;;;5018991;28;20041;-74
2022/04/07 07:55:10;;;;;;;3.63;0.65;;;5.30;99.90;;;;;;5035391;28;20045;-74
2022/04/07 07:57:36;;;;;;;6.78;1.02;;;5.40;99.90;;;;;;5002611;28;20049;-74
2022/04/07 08:00:03;;;;;;;3.63;0.80;;;5.30;99.90;;;;;;5019011;28;20052;-74
2022/04/07 08:02:30;;;;;;;1.90;0.70;;;5.70;99.90;;;;;;5035636;28;20139;-74
2022/04/07 08:04:56;;;;;;;3.03;0.93;;;5.40;99.90;;;;;;5035223;28;20120;-74
2022/04/07 08:07:23;;;;;;;4.88;1.05;;;5.40;99.90;;;;;;5034868;28;20631;-74
2022/04/07 08:09:49;;;;;;;4.47;1.70;;;5.50;99.90;;;;;;5018755;28;20052;-75
2022/04/07 08:12:15;;;;;;;1.88;0.77;;;5.50;99.90;;;;;;5035432;28;20044;-74
2022/04/07 08:14:40;;;;;;;2.63;0.57;;;5.50;99.90;;;;;;5018555;28;20044;-74
2022/04/07 08:17:06;;;;;;;2.75;0.80;;;5.60;99.90;;;;;;5018640;28;20041;-74
2022/04/07 08:19:31;;;;;;;1.45;0.60;;;5.90;99.90;;;;;;5018550;28;20041;-74
2022/04/07 08:21:57;;;;;;;3.03;0.77;;;5.90;99.90;;;;;;5018776;28;20044;-74
2022/04/07 08:24:23;;;;;;;3.58;1.42;;;5.90;99.90;;;;;;5018879;28;20044;-74
2022/04/07 08:26:49;;;;;;;2.85;0.82;;;6.00;99.90;;;;;;5034681;28;20044;-73
2022/04/07 08:29:15;;;;;;;4.13;0.80;;;6.20;99.90;;;;;;5034603;28;20044;-73
2022/04/07 08:31:40;;;;;;;6.47;1.20;;;6.20;99.90;;;;;;5001791;28;20064;-73
2022/04/07 08:34:06;;;;;;;2.25;1.05;;;6.30;99.90;;;;;;5034463;28;20053;-73
2022/04/07 08:36:32;;;;;;;3.30;0.63;;;6.00;99.90;;;;;;5001960;28;20045;-73
2022/04/07 08:38:58;;;;;;;4.32;1.38;;;5.90;99.90;;;;;;5018321;28;20040;-72
2022/04/07 08:41:31;;;;;;;2.05;0.73;;;5.90;99.90;;;;;;5034138;28;20037;-72
2022/04/07 08:43:58;;;;;;;3.03;0.95;;;6.00;99.90;;;;;;5002703;28;20083;-73
2022/04/07 08:46:25;;;;;;;2.67;0.85;;;6.50;99.90;;;;;;5018241;28;20039;-73
2022/04/07 08:48:55;;;;;;;5.50;0.95;;;6.10;99.90;;;;;;5017874;28;20048;-73
2022/04/07 08:51:20;;;;;;;4.65;0.93;;;6.50;99.90;;;;;;5034460;28;20057;-73
2022/04/07 08:53:47;;;;;;;4.38;1.08;;;6.60;99.90;;;;;;5034717;28;20412;-72
2022/04/07 08:56:13;;;;;;;5.25;1.25;;;6.70;99.90;;;;;;5001714;28;20134;-72
2022/04/07 08:58:39;;;;;;;6.18;1.80;;;6.90;99.90;;;;;;5018300;28;20520;-72
2022/04/07 09:01:04;;;;;;;4.65;1.45;;;7.00;99.90;;;;;;5034260;28;20124;-74
2022/04/07 09:03:30;;;;;;;2.97;1.30;;;7.20;99.90;;;;;;5034127;28;20037;-75
2022/04/07 09:06:01;;;;;;;4.32;1.00;;;8.20;99.90;;;;;;5017776;28;20041;-74
2022/04/07 09:08:37;;;;;;;5.63;1.42;;;7.50;99.90;;;;;;5033931;28;20135;-73
2022/04/07 09:11:13;;;;;;;3.35;0.80;;;7.80;99.90;;;;;;5017809;28;20045;-74
2022/04/07 09:13:39;;;;;;;15.13;1.25;;;8.10;99.90;;;;;;5034233;28;20051;-74
2022/04/07 09:16:13;;;;;;;5.20;1.23;;;8.30;99.90;;;;;;5033758;28;20076;-74
2022/04/07 09:18:40;;;;;;;2.78;1.10;;;8.50;99.90;;;;;;5017243;28;20037;-74
2022/04/07 09:21:07;;;;;;;5.07;1.10;;;8.60;99.90;;;;;;5033547;28;20045;-74
2022/04/07 09:23:40;;;;;;;11.00;1.30;;;8.80;99.90;;;;;;5017571;28;20033;-74
2022/04/07 09:26:14;;;;;;;8.60;2.42;;;9.10;99.90;;;;;;5017541;28;20047;-74
2022/04/07 09:28:41;;;;;;;7.30;1.75;;;9.00;99.90;;;;;;5034119;28;20090;-73
2022/04/07 09:31:10;;;;;;;3.20;1.05;;;9.10;99.90;;;;;;5033683;28;20065;-74
2022/04/07 09:33:36;;;;;;;5.72;2.03;;;9.40;99.90;;;;;;5034062;28;20516;-72
2022/04/07 09:36:06;;;;;;;6.82;1.58;;;9.10;99.90;;;;;;5017368;28;20049;-73
2022/04/07 09:38:33;;;;;;;3.00;0.77;;;9.10;99.90;;;;;;5050429;28;20577;-73
2022/04/07 09:41:19;;;;;;;6.50;1.17;;;9.20;99.90;;;;;;5033973;28;20366;-73
2022/04/07 09:43:54;;;;;;;3.65;1.05;;;9.20;99.90;;;;;;5033774;28;20044;-73
2022/04/07 09:46:21;;;;;;;7.60;1.02;;;9.20;99.90;;;;;;5001460;28;20045;-74
2022/04/07 09:49:10;;;;;;;8.05;1.52;;;9.20;99.90;;;;;;5017274;28;20045;-73
2022/04/07 09:51:41;;;;;;;8.63;2.17;;;9.10;99.90;;;;;;5017769;28;20044;-74
2022/04/07 09:54:09;;;;;;;8.55;2.63;;;9.10;99.90;;;;;;5050276;28;20475;-74
2022/04/07 09:56:36;;;;;;;7.68;1.42;;;9.00;99.90;;;;;;5033396;28;20096;-73
2022/04/07 09:59:05;;;;;;;7.75;2.13;;;9.60;99.90;;;;;;5033531;28;20048;-73
2022/04/07 10:01:32;;;;;;;6.78;1.42;;;9.10;99.90;;;;;;5017167;28;20041;-73
2022/04/07 10:03:59;;;;;;;6.40;1.35;;;9.20;99.90;;;;;;5033302;28;20033;-73
2022/04/07 10:06:25;;;;;;;7.65;1.48;;;9.10;99.90;;;;;;5033648;28;20040;-74
2022/04/07 10:08:51;;;;;;;7.22;1.83;;;9.30;99.90;;;;;;5033415;28;20049;-73
2022/04/07 10:11:17;;;;;;;11.65;1.55;;;9.30;99.90;;;;;;5033650;28;20102;-72
2022/04/07 10:13:45;;;;;;;7.03;1.48;;;9.30;99.90;;;;;;5033498;28;20045;-72
2022/04/07 10:16:14;;;;;;;7.68;1.58;;;9.30;99.90;;;;;;5016845;28;20081;-72
2022/04/07 10:19:04;;;;;;;5.70;1.70;;;9.60;99.90;;;;;;5033696;28;20392;-72
2022/04/07 10:21:48;;;;;;;6.13;1.50;;;9.00;99.90;;;;;;5016839;28;20041;-72
2022/04/07 10:24:28;;;;;;;11.93;2.13;;;8.70;99.90;;;;;;5032946;28;20043;-71
2022/04/07 10:26:55;;;;;;;9.02;1.60;;;8.70;99.90;;;;;;5033067;28;20048;-72
2022/04/07 10:29:22;;;;;;;7.90;1.60;;;8.60;99.90;;;;;;5016717;28;20049;-73
2022/04/07 10:32:13;;;;;;;8.60;2.25;;;8.60;99.90;;;;;;5035778;28;20052;-73
2022/04/07 10:34:59;;;;;;;11.90;2.38;;;8.70;99.90;;;;;;5020445;28;20071;-71
2022/04/07 10:37:49;;;;;;;8.30;1.73;;;8.80;99.90;;;;;;5019852;28;20119;-72
2022/04/07 10:40:38;;;;;;;6.45;0.80;;;8.80;99.90;;;;;;5036954;28;20511;-72
2022/04/07 10:43:06;;;;;;;10.65;2.10;;;9.10;99.90;;;;;;5027977;28;20053;-72
2022/04/07 10:45:36;;;;;;;7.18;1.80;;;9.80;99.90;;;;;;5036645;28;20091;-72
2022/04/07 10:48:24;;;;;;;9.50;2.13;;;9.30;99.90;;;;;;5037122;28;20045;-72
2022/04/07 10:50:54;;;;;;;5.20;1.67;;;9.30;99.90;;;;;;5036526;28;20051;-72
2022/04/07 10:53:23;;;;;;;8.82;2.15;;;9.00;99.90;;;;;;5036369;28;20127;-72
2022/04/07 10:56:05;;;;;;;12.45;2.35;;;9.00;99.90;;;;;;5036720;28;20048;-72
2022/04/07 10:58:51;;;;;;;15.18;2.45;;;9.00;99.90;;;;;;5036376;28;20129;-72
2022/04/07 11:01:29;;;;;;;9.20;2.67;;;8.90;99.90;;;;;;5052968;28;20041;-72
2022/04/07 11:04:20;;;;;;;5.82;1.48;;;8.90;99.90;;;;;;5036399;28;20041;-72
2022/04/07 11:07:04;;;;;;;7.38;1.92;;;8.80;99.90;;;;;;5036234;28;20045;-72
2022/04/07 11:09:58;;;;;;;14.77;2.95;;;8.80;99.90;;;;;;5019813;28;20037;-73
2022/04/07 11:12:43;;;;;;;20.85;3.50;;;8.80;99.90;;;;;;5036336;28;20053;-72
2022/04/07 11:15:30;;;;;;;14.68;2.65;;;9.10;99.90;;;;;;5036328;28;20338;-73
2022/04/07 11:18:19;;;;;;;8.63;2.40;;;8.70;99.90;;;;;;5019707;28;20414;-72
2022/04/07 11:21:10;;;;;;;15.43;2.90;;;8.70;99.90;;;;;;5007953;28;20076;-73
2022/04/07 11:23:41;;;;;;;10.68;2.25;;;8.50;99.90;;;;;;5036197;28;20385;-74
2022/04/07 11:26:31;;;;;;;4.47;1.33;;;8.30;99.90;;;;;;5036114;28;20049;-72
2022/04/07 11:29:02;;;;;;;5.85;1.13;;;8.00;99.90;;;;;;5035157;28;20053;-73
2022/04/07 11:32:07;;;;;;;7.75;1.80;;;7.80;99.90;;;;;;5035676;28;20076;-73
2022/04/07 11:34:36;;;;;;;11.35;2.78;;;7.90;99.90;;;;;;5026524;28;20045;-73
2022/04/07 11:37:14;;;;;;;8.90;2.88;;;8.20;99.90;;;;;;5019042;28;20053;-73
2022/04/07 11:39:53;;;;;;;12.52;2.30;;;8.50;99.90;;;;;;5036094;28;20500;-74
2022/04/07 11:42:22;;;;;;;7.63;2.22;;;9.00;99.90;;;;;;5035005;28;20431;-73
2022/04/07 11:44:55;;;;;;;7.50;1.42;;;9.10;99.90;;;;;;5019298;28;20041;-74
2022/04/07 11:47:23;;;;;;;11.63;2.85;;;9.20;99.90;;;;;;5035676;28;20052;-74
2022/04/07 11:49:49;;;;;;;11.40;2.60;;;9.20;99.90;;;;;;5019058;28;20098;-73
2022/04/07 11:52:16;;;;;;;12.00;2.50;;;9.30;99.90;;;;;;5019230;28;20045;-74
2022/04/07 11:54:41;;;;;;;11.60;2.92;;;9.40;99.90;;;;;;5035389;28;20048;-74
2022/04/07 11:57:10;;;;;;;11.10;2.63;;;9.50;99.90;;;;;;5018791;28;20048;-73
2022/04/07 11:59:37;;;;;;;10.68;2.30;;;9.60;99.90;;;;;;5036034;28;20083;-74
2022/04/07 12:02:03;;;;;;;12.52;2.92;;;10.10;99.90;;;;;;5018701;28;20059;-74
2022/04/07 12:04:34;;;;;;;12.25;2.00;;;9.50;99.90;;;;;;5035430;28;20037;-73
2022/04/07 12:07:01;;;;;;;15.68;2.60;;;9.20;99.90;;;;;;5035385;28;20056;-73
2022/04/07 12:09:27;;;;;;;22.73;3.85;;;9.20;99.90;;;;;;5018727;28;20103;-73
2022/04/07 12:11:54;;;;;;;15.32;2.97;;;8.90;99.90;;;;;;5035133;28;20053;-73
2022/04/07 12:14:24;;;;;;;13.73;2.25;;;8.90;99.90;;;;;;5018740;28;20068;-72
2022/04/07 12:16:51;;;;;;;10.48;2.22;;;9.60;99.90;;;;;;5018572;28;20037;-73
2022/04/07 12:19:18;;;;;;;13.23;3.28;;;9.40;99.90;;;;;;5034893;28;20045;-72
2022/04/07 12:21:51;;;;;;;14.73;2.67;;;9.70;99.90;;;;;;5035137;28;20044;-72
2022/04/07 12:24:16;;;;;;;11.93;1.92;;;9.90;99.90;;;;;;5035001;28;20128;-74
2022/04/07 12:26:43;;;;;;;10.15;2.75;;;10.00;99.90;;;;;;5034919;28;20135;-72
2022/04/07 12:29:20;;;;;;;10.75;2.28;;;10.00;99.90;;;;;;5034875;28;20040;-73
2022/04/07 12:31:57;;;;;;;9.63;2.47;;;10.00;99.90;;;;;;5051220;28;20069;-72
2022/04/07 12:34:23;;;;;;;7.60;2.00;;;10.00;99.90;;;;;;5034642;28;20041;-71
2022/04/07 12:36:48;;;;;;;7.30;1.98;;;9.90;99.90;;;;;;5018411;28;20052;-72
2022/04/07 12:39:15;;;;;;;4.40;1.10;;;9.90;99.90;;;;;;5034588;28;20079;-73
2022/04/07 12:41:43;;;;;;;12.57;2.25;;;9.90;99.90;;;;;;5018116;28;20048;-73
2022/04/07 12:44:11;;;;;;;11.93;2.08;;;10.00;99.90;;;;;;5018471;28;20033;-73
2022/04/07 12:46:54;;;;;;;5.93;1.30;;;10.30;99.90;;;;;;5018260;28;20052;-72
2022/04/07 12:49:28;;;;;;;10.27;2.35;;;10.30;99.90;;;;;;5018027;28;20053;-72
2022/04/07 12:52:08;;;;;;;10.73;2.30;;;10.20;99.90;;;;;;5034731;28;20484;-72
2022/04/07 12:54:35;;;;;;;8.15;1.88;;;10.10;99.90;;;;;;5018040;28;20567;-72
2022/04/07 12:57:12;;;;;;;10.82;1.85;;;9.90;99.90;;;;;;5034211;28;20041;-72
2022/04/07 12:59:40;;;;;;;9.98;1.98;;;9.60;99.90;;;;;;5018206;28;20439;-72